createdAt,value
2022-08-22T00:01:15.819Z,18.30
2022-08-22T00:03:55.632Z,18.30
2022-08-22T00:06:30.233Z,18.30
2022-08-22T00:09:11.781Z,18.30
2022-08-22T00:11:49.048Z,18.30
2022-08-22T00:14:24.924Z,18.30
2022-08-22T00:17:01.728Z,18.30
2022-08-22T00:19:42.972Z,18.30
2022-08-22T00:22:19.255Z,18.40
2022-08-22T00:24:53.204Z,18.30
2022-08-22T00:27:26.439Z,18.30
2022-08-22T00:30:00.358Z,18.30
2022-08-22T00:32:34.072Z,18.30
2022-08-22T00:35:06.334Z,18.30
2022-08-22T00:37:44.825Z,18.20
2022-08-22T00:40:30.391Z,18.20
2022-08-22T00:43:20.822Z,18.30
2022-08-22T00:46:05.314Z,18.20
2022-08-22T00:49:08.367Z,18.20
2022-08-22T00:51:55.758Z,18.20
2022-08-22T00:54:37.487Z,18.20
2022-08-22T00:57:24.170Z,18.20
2022-08-22T01:00:18.442Z,18.20
2022-08-22T01:03:18.388Z,18.20
2022-08-22T01:05:57.892Z,18.10
2022-08-22T01:08:43.360Z,18.10
2022-08-22T01:11:27.304Z,18.10
2022-08-22T01:14:15.753Z,18.10
2022-08-22T01:17:10.480Z,18.10
2022-08-22T01:23:20.004Z,18.10
2022-08-22T01:26:29.646Z,18.00
2022-08-22T01:29:30.894Z,18.10
2022-08-22T01:32:35.276Z,18.10
2022-08-22T01:35:38.392Z,18.10
2022-08-22T01:38:41.036Z,18.10
2022-08-22T01:41:23.482Z,18.20
2022-08-22T01:44:13.466Z,18.20
2022-08-22T01:46:52.674Z,18.20
2022-08-22T01:49:26.271Z,18.20
2022-08-22T01:52:01.048Z,18.10
2022-08-22T01:54:39.643Z,18.10
2022-08-22T01:57:10.415Z,18.10
2022-08-22T01:59:42.851Z,18.10
2022-08-22T02:02:28.685Z,18.10
2022-08-22T02:05:03.741Z,18.10
2022-08-22T02:07:45.092Z,18.10
2022-08-22T02:10:21.036Z,18.00
2022-08-22T02:12:57.897Z,18.00
2022-08-22T02:15:33.373Z,18.00
2022-08-22T02:18:15.597Z,17.90
2022-08-22T02:21:00.183Z,18.00
2022-08-22T02:23:45.641Z,18.00
2022-08-22T02:26:18.175Z,18.00
2022-08-22T02:28:57.457Z,18.00
2022-08-22T02:31:39.974Z,18.00
2022-08-22T02:34:26.920Z,18.00
2022-08-22T02:37:01.777Z,18.00
2022-08-22T02:39:38.236Z,18.00
2022-08-22T02:42:18.293Z,18.00
2022-08-22T02:45:03.995Z,18.10
2022-08-22T02:47:40.935Z,18.00
2022-08-22T02:50:20.233Z,18.00
2022-08-22T02:52:57.363Z,18.00
2022-08-22T02:55:39.300Z,18.00
2022-08-22T02:58:12.704Z,18.00
2022-08-22T03:00:48.333Z,18.00
2022-08-22T03:03:21.710Z,18.00
2022-08-22T03:06:01.608Z,18.00
2022-08-22T03:08:32.053Z,17.90
2022-08-22T03:11:18.250Z,17.90
2022-08-22T03:13:54.799Z,17.90
2022-08-22T03:16:29.751Z,17.90
2022-08-22T03:19:04.270Z,17.90
2022-08-22T03:21:39.319Z,17.90
2022-08-22T03:24:13.481Z,17.80
2022-08-22T03:26:50.455Z,17.80
2022-08-22T03:29:23.265Z,17.80
2022-08-22T03:32:13.593Z,17.80
2022-08-22T03:34:57.630Z,17.80
2022-08-22T03:37:35.636Z,17.80
2022-08-22T03:40:07.434Z,17.80
2022-08-22T03:43:13.939Z,17.80
2022-08-22T03:46:36.198Z,17.70
2022-08-22T03:49:39.046Z,17.70
2022-08-22T03:52:28.628Z,17.60
2022-08-22T03:55:20.592Z,17.60
2022-08-22T03:58:27.954Z,17.60
2022-08-22T04:01:31.631Z,17.50
2022-08-22T04:04:38.509Z,17.60
2022-08-22T04:08:04.398Z,17.60
2022-08-22T04:11:18.527Z,17.50
2022-08-22T04:14:18.916Z,17.50
2022-08-22T04:17:21.303Z,17.50
2022-08-22T04:20:31.664Z,17.50
2022-08-22T04:23:27.324Z,17.40
2022-08-22T04:26:00.647Z,17.40
2022-08-22T04:28:49.054Z,17.40
2022-08-22T04:31:25.125Z,17.40
2022-08-22T04:34:00.387Z,17.40
2022-08-22T04:36:34.735Z,17.40
2022-08-22T04:39:09.501Z,17.30
2022-08-22T04:41:48.688Z,17.30
2022-08-22T04:44:23.179Z,17.30
2022-08-22T04:46:57.569Z,17.30
2022-08-22T04:49:33.724Z,17.30
2022-08-22T04:52:13.266Z,17.30
2022-08-22T04:54:54.462Z,17.30
2022-08-22T04:57:31.022Z,17.30
2022-08-22T05:00:00.948Z,17.30
2022-08-22T05:02:29.288Z,17.30
2022-08-22T05:05:04.825Z,17.30
2022-08-22T05:07:46.699Z,17.30
2022-08-22T05:10:22.260Z,17.30
2022-08-22T05:21:07.516Z,17.30
2022-08-22T05:23:42.997Z,17.30
2022-08-22T05:26:14.189Z,17.40
2022-08-22T05:28:51.305Z,17.40
2022-08-22T05:31:26.670Z,17.40
2022-08-22T05:33:58.963Z,17.50
2022-08-22T05:36:30.511Z,17.50
2022-08-22T05:39:03.129Z,17.50
2022-08-22T05:41:36.411Z,17.50
2022-08-22T05:44:05.444Z,17.60
2022-08-22T05:46:41.545Z,17.60
2022-08-22T05:49:20.058Z,17.60
2022-08-22T05:54:54.865Z,17.70
2022-08-22T05:57:30.176Z,17.70
2022-08-22T06:00:06.486Z,17.80
2022-08-22T06:02:48.997Z,17.80
2022-08-22T06:05:25.421Z,17.90
2022-08-22T06:07:57.845Z,18.10
2022-08-22T06:10:31.488Z,18.20
2022-08-22T06:18:19.254Z,18.80
2022-08-22T06:20:50.875Z,19.00
2022-08-22T06:23:26.295Z,19.30
2022-08-22T06:26:00.956Z,19.50
2022-08-22T06:28:35.027Z,19.70
2022-08-22T06:31:04.293Z,20.00
2022-08-22T06:33:41.525Z,20.20
2022-08-22T06:36:33.992Z,20.40
2022-08-22T06:39:11.148Z,20.60
2022-08-22T06:41:46.071Z,20.80
2022-08-22T06:44:17.500Z,20.90
2022-08-22T06:46:49.592Z,21.00
2022-08-22T06:49:18.285Z,21.20
2022-08-22T06:51:47.653Z,21.20
2022-08-22T06:54:22.176Z,21.30
2022-08-22T06:56:54.355Z,21.40
2022-08-22T06:59:27.149Z,21.50
2022-08-22T07:02:02.611Z,21.70
2022-08-22T07:04:31.796Z,21.80
2022-08-22T07:07:02.466Z,21.90
2022-08-22T07:09:33.646Z,21.90
2022-08-22T07:12:05.915Z,22.00
2022-08-22T07:14:41.220Z,22.10
2022-08-22T07:17:16.497Z,22.30
2022-08-22T07:19:50.663Z,22.40
2022-08-22T07:22:25.468Z,22.60
2022-08-22T07:24:56.918Z,22.60
2022-08-22T07:27:40.637Z,22.80
2022-08-22T07:30:12.927Z,22.80
2022-08-22T07:32:46.127Z,22.90
2022-08-22T07:35:18.873Z,23.10
2022-08-22T07:37:57.493Z,23.10
2022-08-22T07:40:32.060Z,23.30
2022-08-22T07:43:10.285Z,23.40
2022-08-22T07:45:44.512Z,23.50
2022-08-22T07:48:26.290Z,23.50
2022-08-22T07:51:07.949Z,23.50
2022-08-22T07:53:43.381Z,23.60
2022-08-22T07:56:17.016Z,23.80
2022-08-22T07:58:49.688Z,23.70
2022-08-22T08:01:21.100Z,23.70
2022-08-22T08:03:55.094Z,23.90
2022-08-22T08:06:25.424Z,24.00
2022-08-22T08:08:55.130Z,24.10
2022-08-22T08:11:25.169Z,24.20
2022-08-22T08:14:00.301Z,24.30
2022-08-22T08:16:32.068Z,24.40
2022-08-22T08:19:02.993Z,24.30
2022-08-22T08:21:34.735Z,24.40
2022-08-22T08:24:06.072Z,24.40
2022-08-22T08:26:36.937Z,24.20
2022-08-22T08:29:08.177Z,24.20
2022-08-22T08:31:43.335Z,24.30
2022-08-22T08:34:20.411Z,24.30
2022-08-22T08:36:54.843Z,24.20
2022-08-22T08:39:35.554Z,24.10
2022-08-22T08:43:00.027Z,24.10
2022-08-22T08:45:51.736Z,24.20
2022-08-22T08:48:49.796Z,24.30
2022-08-22T08:51:41.510Z,24.40
2022-08-22T08:54:37.581Z,24.40
2022-08-22T08:57:20.330Z,24.50
2022-08-22T09:00:02.326Z,24.70
2022-08-22T09:02:50.289Z,24.80
2022-08-22T09:06:04.263Z,24.90
2022-08-22T09:09:04.720Z,24.80
2022-08-22T09:12:02.171Z,25.00
2022-08-22T09:15:23.440Z,25.10
2022-08-22T09:18:40.858Z,25.20
2022-08-22T09:21:56.180Z,25.30
2022-08-22T09:24:52.345Z,25.50
2022-08-22T09:27:32.291Z,25.80
2022-08-22T09:30:07.002Z,25.90
2022-08-22T09:32:45.564Z,26.00
2022-08-22T09:35:23.955Z,26.10
2022-08-22T09:38:23.863Z,26.10
2022-08-22T09:41:01.146Z,26.20
2022-08-22T09:43:45.748Z,26.20
2022-08-22T09:46:21.420Z,26.20
2022-08-22T09:49:05.632Z,26.30
2022-08-22T09:51:43.085Z,26.00
2022-08-22T09:54:33.014Z,25.90
2022-08-22T09:57:18.310Z,25.90
2022-08-22T09:59:57.903Z,25.90
2022-08-22T10:02:34.460Z,26.00
2022-08-22T10:05:13.230Z,26.20
2022-08-22T10:08:15.340Z,26.20
2022-08-22T10:11:07.121Z,26.30
2022-08-22T10:13:46.311Z,26.40
2022-08-22T10:16:25.650Z,26.50
2022-08-22T10:19:07.352Z,26.40
2022-08-22T10:21:41.568Z,26.50
2022-08-22T10:24:25.263Z,26.60
2022-08-22T10:26:56.501Z,26.70
2022-08-22T10:29:46.898Z,26.60
2022-08-22T10:32:28.339Z,26.40
2022-08-22T10:35:00.216Z,26.30
2022-08-22T10:37:34.441Z,26.50
2022-08-22T10:40:11.537Z,26.40
2022-08-22T10:42:49.985Z,26.20
2022-08-22T10:45:35.927Z,26.40
2022-08-22T10:48:33.690Z,26.40
2022-08-22T10:51:16.700Z,26.50
2022-08-22T10:54:01.404Z,26.50
2022-08-22T10:56:35.985Z,26.50
2022-08-22T10:59:16.502Z,26.50
2022-08-22T11:01:53.665Z,26.60
2022-08-22T11:04:39.191Z,26.50
2022-08-22T11:07:17.986Z,26.50
2022-08-22T11:09:58.187Z,26.40
2022-08-22T11:12:36.553Z,26.30
2022-08-22T11:15:34.445Z,26.20
2022-08-22T11:18:18.916Z,26.20
2022-08-22T11:20:59.317Z,26.30
2022-08-22T11:23:40.072Z,26.20
2022-08-22T11:26:30.125Z,26.10
2022-08-22T11:29:25.192Z,26.00
2022-08-22T11:32:16.673Z,26.10
2022-08-22T11:34:58.724Z,26.10
2022-08-22T11:37:54.939Z,26.10
2022-08-22T11:40:33.666Z,26.20
2022-08-22T11:43:22.627Z,26.20
2022-08-22T11:45:57.264Z,26.20
2022-08-22T11:48:33.813Z,26.20
2022-08-22T11:51:15.844Z,26.20
2022-08-22T11:53:50.932Z,26.10
2022-08-22T11:56:25.855Z,26.00
2022-08-22T11:59:01.989Z,25.90
2022-08-22T12:01:39.363Z,25.90
2022-08-22T12:04:17.089Z,25.90
2022-08-22T12:06:55.304Z,26.00
2022-08-22T12:09:42.652Z,26.00
2022-08-22T12:12:25.159Z,26.10
2022-08-22T12:15:00.688Z,26.20
2022-08-22T12:18:01.415Z,26.20
2022-08-22T12:20:58.977Z,26.20
2022-08-22T12:23:49.136Z,26.20
2022-08-22T12:26:25.872Z,26.20
2022-08-22T12:29:15.576Z,26.20
2022-08-22T12:32:27.582Z,26.30
2022-08-22T12:35:13.815Z,26.40
2022-08-22T12:38:03.037Z,26.40
2022-08-22T12:40:50.106Z,26.60
2022-08-22T12:43:49.595Z,26.80
2022-08-22T12:46:28.743Z,26.80
2022-08-22T12:49:10.569Z,26.60
2022-08-22T12:52:00.934Z,26.70
2022-08-22T12:54:53.340Z,26.90
2022-08-22T12:57:40.149Z,27.00
2022-08-22T13:00:22.918Z,27.10
2022-08-22T13:02:55.807Z,27.00
2022-08-22T13:05:26.600Z,27.00
2022-08-22T13:08:04.137Z,27.10
2022-08-22T13:10:46.486Z,27.20
2022-08-22T13:13:31.591Z,27.30
2022-08-22T13:16:08.653Z,27.40
2022-08-22T13:18:44.667Z,27.60
2022-08-22T13:21:18.590Z,27.60
2022-08-22T13:23:54.935Z,27.60
2022-08-22T13:26:34.362Z,27.60
2022-08-22T13:29:25.150Z,27.70
2022-08-22T13:31:59.129Z,27.70
2022-08-22T13:34:39.782Z,27.60
2022-08-22T13:37:13.342Z,27.70
2022-08-22T13:39:49.683Z,27.70
2022-08-22T13:42:29.615Z,27.70
2022-08-22T13:45:02.474Z,27.70
2022-08-22T13:47:34.372Z,27.60
2022-08-22T13:50:13.999Z,27.60
2022-08-22T13:52:53.750Z,27.50
2022-08-22T13:55:30.781Z,27.40
2022-08-22T13:58:11.381Z,27.20
2022-08-22T14:01:17.513Z,27.00
2022-08-22T14:03:50.974Z,27.20
2022-08-22T14:06:37.920Z,27.50
2022-08-22T14:09:17.602Z,27.70
2022-08-22T14:12:11.992Z,27.70
2022-08-22T14:14:46.113Z,27.80
2022-08-22T14:17:17.476Z,27.80
2022-08-22T14:19:59.267Z,27.90
2022-08-22T14:22:34.782Z,27.80
2022-08-22T14:25:07.786Z,27.80
2022-08-22T14:27:43.825Z,27.80
2022-08-22T14:30:18.861Z,27.80
2022-08-22T14:32:51.338Z,27.80
2022-08-22T14:35:35.024Z,27.80
2022-08-22T14:38:21.083Z,27.80
2022-08-22T14:40:58.967Z,27.70
2022-08-22T14:43:49.303Z,27.70
2022-08-22T14:46:26.684Z,27.60
2022-08-22T14:49:16.178Z,27.40
2022-08-22T14:51:50.697Z,27.40
2022-08-22T14:54:22.013Z,27.30
2022-08-22T14:56:52.796Z,27.40
2022-08-22T14:59:38.158Z,27.30
2022-08-22T15:02:11.319Z,27.30
2022-08-22T15:04:41.755Z,27.30
2022-08-22T15:07:11.705Z,27.20
2022-08-22T15:09:44.664Z,27.20
2022-08-22T15:12:25.187Z,27.10
2022-08-22T15:14:59.079Z,27.00
2022-08-22T15:17:39.955Z,27.00
2022-08-22T15:20:22.846Z,26.90
2022-08-22T15:22:59.194Z,26.90
2022-08-22T15:25:33.682Z,26.90
2022-08-22T15:28:14.432Z,26.90
2022-08-22T15:30:48.985Z,26.90
2022-08-22T15:33:24.767Z,26.90
2022-08-22T15:35:55.048Z,26.90
2022-08-22T15:38:32.599Z,26.80
2022-08-22T15:41:39.639Z,26.80
2022-08-22T15:44:15.032Z,26.90
2022-08-22T15:47:10.815Z,26.90
2022-08-22T15:49:50.445Z,26.90
2022-08-22T15:52:25.984Z,26.90
2022-08-22T15:55:18.940Z,26.90
2022-08-22T15:58:13.135Z,26.90
2022-08-22T16:00:45.918Z,26.90
2022-08-22T16:03:27.690Z,26.90
2022-08-22T16:06:00.732Z,26.90
2022-08-22T16:08:33.151Z,26.90
2022-08-22T16:11:24.455Z,26.80
2022-08-22T16:14:22.582Z,26.80
2022-08-22T16:17:03.237Z,26.70
2022-08-22T16:19:34.729Z,26.60
2022-08-22T16:22:11.411Z,26.60
2022-08-22T16:25:04.747Z,26.60
2022-08-22T16:27:34.805Z,26.50
2022-08-22T16:30:15.273Z,26.50
2022-08-22T16:32:57.403Z,26.60
2022-08-22T16:36:17.773Z,26.70
2022-08-22T16:38:53.355Z,26.70
2022-08-22T16:41:35.753Z,26.70
2022-08-22T16:44:42.809Z,26.70
2022-08-22T16:47:16.224Z,26.70
2022-08-22T16:50:11.228Z,26.60
2022-08-22T16:52:54.771Z,26.60
2022-08-22T16:56:15.195Z,26.50
2022-08-22T16:59:14.171Z,26.40
2022-08-22T17:02:11.850Z,26.40
2022-08-22T17:04:54.182Z,26.40
2022-08-22T17:07:33.282Z,26.30
2022-08-22T17:10:28.929Z,26.30
2022-08-22T17:13:22.393Z,26.40
2022-08-22T17:16:08.047Z,26.40
2022-08-22T17:18:50.386Z,26.30
2022-08-22T17:21:26.002Z,26.30
2022-08-22T17:24:07.010Z,26.30
2022-08-22T17:26:50.806Z,26.30
2022-08-22T17:29:39.796Z,26.20
2022-08-22T17:32:17.576Z,26.10
2022-08-22T17:34:57.109Z,26.10
2022-08-22T17:37:36.779Z,26.10
2022-08-22T17:40:27.670Z,26.00
2022-08-22T17:43:22.289Z,26.00
2022-08-22T17:46:12.826Z,25.90
2022-08-22T17:48:48.069Z,25.90
2022-08-22T17:51:28.518Z,25.80
2022-08-22T17:54:02.228Z,25.80
2022-08-22T17:56:40.974Z,25.80
2022-08-22T17:59:20.964Z,25.70
2022-08-22T18:01:54.870Z,25.60
2022-08-22T18:04:38.907Z,25.50
2022-08-22T18:07:26.489Z,25.30
2022-08-22T18:09:59.361Z,25.20
2022-08-22T18:12:34.634Z,25.10
2022-08-22T18:15:08.052Z,25.00
2022-08-22T18:17:42.489Z,24.90
2022-08-22T18:20:16.625Z,24.80
2022-08-22T18:22:50.500Z,24.70
2022-08-22T18:25:35.452Z,24.60
2022-08-22T18:28:10.129Z,24.50
2022-08-22T18:30:54.307Z,24.40
2022-08-22T18:33:33.365Z,24.30
2022-08-22T18:36:10.451Z,24.10
2022-08-22T18:38:49.927Z,24.00
2022-08-22T18:41:26.600Z,23.90
2022-08-22T18:43:55.591Z,23.90
2022-08-22T18:46:43.975Z,23.80
2022-08-22T18:49:30.125Z,23.80
2022-08-22T18:52:19.742Z,23.70
2022-08-22T18:55:08.474Z,23.70
2022-08-22T18:57:54.237Z,23.60
2022-08-22T19:00:25.229Z,23.50
2022-08-22T19:03:24.328Z,23.40
2022-08-22T19:06:26.605Z,23.40
2022-08-22T19:09:20.157Z,23.30
2022-08-22T19:11:56.528Z,23.20
2022-08-22T19:14:36.758Z,23.20
2022-08-22T19:17:37.940Z,23.10
2022-08-22T19:20:43.206Z,23.00
2022-08-22T19:23:49.043Z,23.00
2022-08-22T19:26:28.612Z,23.00
2022-08-22T19:28:59.466Z,23.00
2022-08-22T19:31:45.523Z,23.00
2022-08-22T19:34:30.370Z,22.90
2022-08-22T19:37:32.187Z,22.90
2022-08-22T19:40:07.043Z,22.90
2022-08-22T19:42:38.830Z,22.80
2022-08-22T19:45:18.191Z,22.70
2022-08-22T19:47:55.798Z,22.70
2022-08-22T19:50:31.510Z,22.70
2022-08-22T19:53:26.084Z,22.60
2022-08-22T19:56:05.857Z,22.60
2022-08-22T19:58:45.338Z,22.50
2022-08-22T20:01:42.184Z,22.50
2022-08-22T20:04:23.774Z,22.50
2022-08-22T20:07:14.390Z,22.40
2022-08-22T20:09:51.073Z,22.40
2022-08-22T20:12:33.938Z,22.40
2022-08-22T20:15:16.426Z,22.30
2022-08-22T20:18:11.248Z,22.30
2022-08-22T20:20:38.459Z,22.30
2022-08-22T20:23:13.962Z,22.20
2022-08-22T20:25:50.124Z,22.20
2022-08-22T20:28:36.975Z,22.20
2022-08-22T20:31:10.214Z,22.20
2022-08-22T20:33:41.355Z,22.10
2022-08-22T20:36:27.277Z,22.10
2022-08-22T20:39:01.068Z,22.10
2022-08-22T20:41:33.780Z,22.10
2022-08-22T20:44:12.700Z,22.20
2022-08-22T20:46:53.611Z,22.20
2022-08-22T20:49:26.352Z,22.20
2022-08-22T20:51:59.450Z,22.10
2022-08-22T20:54:30.200Z,22.20
2022-08-22T20:57:04.204Z,22.20
2022-08-22T20:59:40.070Z,22.10
2022-08-22T21:02:14.546Z,22.10
2022-08-22T21:04:49.811Z,22.10
2022-08-22T21:10:37.726Z,22.00
2022-08-22T21:13:09.558Z,22.00
2022-08-22T21:15:41.451Z,21.90
2022-08-22T21:18:10.922Z,21.90
2022-08-22T21:20:39.896Z,21.90
2022-08-22T21:23:14.793Z,21.80
2022-08-22T21:25:53.432Z,21.80
2022-08-22T21:28:34.147Z,21.70
2022-08-22T21:31:12.144Z,21.60
2022-08-22T21:33:45.004Z,21.50
2022-08-22T21:36:17.341Z,21.50
2022-08-22T21:38:50.990Z,21.40
2022-08-22T21:41:39.961Z,21.40
2022-08-22T21:44:28.479Z,21.40
2022-08-22T21:47:14.187Z,21.30
2022-08-22T21:50:01.627Z,21.30
2022-08-22T21:52:31.026Z,21.30
2022-08-22T21:55:23.885Z,21.20
2022-08-22T21:58:36.918Z,21.30
2022-08-22T22:01:30.443Z,21.20
2022-08-22T22:04:01.038Z,21.20
2022-08-22T22:06:29.116Z,21.20
2022-08-22T22:08:57.144Z,21.10
2022-08-22T22:11:25.113Z,21.00
2022-08-22T22:13:53.110Z,21.00
2022-08-22T22:16:25.912Z,21.00
2022-08-22T22:18:54.033Z,20.90
2022-08-22T22:21:23.492Z,20.90
2022-08-22T22:23:52.384Z,20.80
2022-08-22T22:26:21.344Z,20.70
2022-08-22T22:28:50.249Z,20.70
2022-08-22T22:31:19.975Z,20.60
2022-08-22T22:33:48.123Z,20.60
2022-08-22T22:36:19.657Z,20.50
2022-08-22T22:38:51.653Z,20.50
2022-08-22T22:41:20.443Z,20.40
2022-08-22T22:43:48.462Z,20.40
2022-08-22T22:46:16.465Z,20.30
2022-08-22T22:48:47.794Z,20.30
2022-08-22T22:51:18.448Z,20.30
2022-08-22T22:53:48.508Z,20.20
2022-08-22T22:56:23.455Z,20.10
2022-08-22T22:58:59.317Z,20.10
2022-08-22T23:01:31.648Z,20.10
2022-08-22T23:04:05.579Z,20.10
2022-08-22T23:06:34.549Z,20.20
2022-08-22T23:09:04.050Z,20.10
2022-08-22T23:11:32.282Z,20.20
2022-08-22T23:14:02.004Z,20.20
2022-08-22T23:16:36.991Z,20.20
2022-08-22T23:19:09.751Z,20.30
2022-08-22T23:21:38.484Z,20.40
2022-08-22T23:24:08.027Z,20.40
2022-08-22T23:26:36.662Z,20.40
2022-08-22T23:29:06.017Z,20.50
2022-08-22T23:31:36.712Z,20.50
2022-08-22T23:34:07.806Z,20.50
2022-08-22T23:36:36.127Z,20.60
2022-08-22T23:39:06.126Z,20.70
2022-08-22T23:41:37.435Z,20.80
2022-08-22T23:44:07.205Z,20.80
2022-08-22T23:46:37.159Z,20.80
2022-08-22T23:49:07.114Z,20.80
2022-08-22T23:51:35.539Z,20.80
2022-08-22T23:54:04.612Z,20.90
2022-08-22T23:56:36.668Z,20.90
2022-08-22T23:59:07.656Z,20.90
